Salem, WV (26426)

02:56:EDT den 03. september 2014 (GMT -0400)
Marshville | Change Station
CLOSE
Current Station
Personlig værstasjon
Location: Salem, WV
Høyde over havet: 1122 ft
Nearby Weather Stations

H.o.h 1122 ft 39.34 °N, 80.52 °W | Updated 13 minutes ago

Overskyet
Overskyet
70.5 °F
Feels Like 70.5 °F
N
0.0
Vind Variabel Vind from VNV

I dag
High -- | Low -- °F
--% Chance of Precip.
I går
High -- | Low -- °F
Precip. -- tommer
6:52 AM 7:49 PM
Første kvarter, 59% visible
Lufttrykk 29.99 tommer
Sikt 10.0 eng. mil
Skyet Few 800 ft
For det meste skyet 2100 ft
For det meste skyet 2700 ft
Duggpunkt 67 °F
Fuktighet 90%
Regn 0.00 tommer
Snødybde Not available.
UV 0 av 12
Pollen 8.50 av 12
Luftkvalitet Not available.
Flu Activity Not available.
METAR KCKB 030653Z AUTO 19004KT 10SM FEW008 BKN021 BKN027 21/20 A3002 RMK AO2 SLP153 T02110200 TSNO

More Conditions Fewer Conditions

Lufttrykk 29.99 tommer
Sikt 10.0 eng. mil
Skyet Few 800 ft
For det meste skyet 2100 ft
For det meste skyet 2700 ft
Duggpunkt 67 °F
Fuktighet 90%
Regn 0.00 tommer
Snødybde Not available.
UV 0 av 12
Pollen 8.50 av 12
Luftkvalitet Not available.
Flu Activity Not available.
METAR KCKB 030653Z AUTO 19004KT 10SM FEW008 BKN021 BKN027 21/20 A3002 RMK AO2 SLP153 T02110200 TSNO

More Conditions Fewer Conditions

10-Day Weather Forecast

Almanac

Astronomi

Sep. 03, 2014 Oppgang Nedgang
Virkelig tid 06:52 EDT 19:49 EDT
Tussmørke 06:25 EDT 20:17 EDT
Nautisk skumring 05:52 EDT 20:49 EDT
Astronomisk skumring 05:18 EDT 21:23 EDT
Månen 15:29 EDT 00:46 EDT
Lengde av synlig lys 13h 51m
Dagens lengde
12h 57m
Tomorrow will be 2m 29s shorter.
Første kvarter, 59% of the Moon is Illuminated
I dag
Første kvarter
Sep 8
Fullmåne
Sep 15
Siste kvarter
Sep 24
Ny
Oct 1
Første kvarter

Dagens maks og min

State Highs State Lows

Community

WunderPhotos

Upload Photos

1,749,888 photos uploaded!

Nearby

Snødybde

Stasjon Depth Høyde over havet
No new snow has been reported.

Earthquake Activity

By Distance Mag. Time & Date
No recent earthquake activity has been reported nearby.
Minimum magnitude displayed is 2.5.

Coastal Water Temperatures

Sted Temperatur
Ingen stasjoner raporterer

Nearby Weather Stations